sensor_id;sensor_type;location;lat;lon;timestamp;temperature;humidity
4107;DHT22;21906;50.812;7.132;2023-06-22T00:02:00;23.50;67.30
4107;DHT22;21906;50.812;7.132;2023-06-22T00:04:26;23.50;66.50
4107;DHT22;21906;50.812;7.132;2023-06-22T00:06:52;23.50;66.80
4107;DHT22;21906;50.812;7.132;2023-06-22T00:09:17;23.50;66.50
4107;DHT22;21906;50.812;7.132;2023-06-22T00:11:43;23.40;66.40
4107;DHT22;21906;50.812;7.132;2023-06-22T00:14:09;23.40;65.70
4107;DHT22;21906;50.812;7.132;2023-06-22T00:16:34;23.30;65.90
4107;DHT22;21906;50.812;7.132;2023-06-22T00:19:00;23.40;66.40
4107;DHT22;21906;50.812;7.132;2023-06-22T00:21:27;23.40;67.70
4107;DHT22;21906;50.812;7.132;2023-06-22T00:23:53;23.40;68.10
4107;DHT22;21906;50.812;7.132;2023-06-22T00:26:19;23.40;67.90
4107;DHT22;21906;50.812;7.132;2023-06-22T00:28:46;23.40;68.30
4107;DHT22;21906;50.812;7.132;2023-06-22T00:31:12;23.40;68.40
4107;DHT22;21906;50.812;7.132;2023-06-22T00:33:37;23.40;68.90
4107;DHT22;21906;50.812;7.132;2023-06-22T00:36:04;23.40;68.70
4107;DHT22;21906;50.812;7.132;2023-06-22T00:38:30;23.40;69.50
4107;DHT22;21906;50.812;7.132;2023-06-22T00:40:55;23.40;69.30
4107;DHT22;21906;50.812;7.132;2023-06-22T00:43:21;23.40;68.10
4107;DHT22;21906;50.812;7.132;2023-06-22T00:45:46;23.40;69.10
4107;DHT22;21906;50.812;7.132;2023-06-22T00:48:13;23.40;69.10
4107;DHT22;21906;50.812;7.132;2023-06-22T00:50:40;23.40;69.30
4107;DHT22;21906;50.812;7.132;2023-06-22T00:53:07;23.40;69.40
4107;DHT22;21906;50.812;7.132;2023-06-22T00:55:38;23.40;69.70
4107;DHT22;21906;50.812;7.132;2023-06-22T00:58:05;23.30;69.10
4107;DHT22;21906;50.812;7.132;2023-06-22T01:00:33;23.30;69.80
4107;DHT22;21906;50.812;7.132;2023-06-22T01:02:59;23.30;68.20
4107;DHT22;21906;50.812;7.132;2023-06-22T01:05:25;23.20;68.60
4107;DHT22;21906;50.812;7.132;2023-06-22T01:08:16;23.20;68.50
4107;DHT22;21906;50.812;7.132;2023-06-22T01:10:53;23.20;68.00
4107;DHT22;21906;50.812;7.132;2023-06-22T01:16:26;23.20;68.20
4107;DHT22;21906;50.812;7.132;2023-06-22T01:18:55;23.20;69.10
4107;DHT22;21906;50.812;7.132;2023-06-22T01:21:22;23.20;69.20
4107;DHT22;21906;50.812;7.132;2023-06-22T01:26:42;23.10;69.70
4107;DHT22;21906;50.812;7.132;2023-06-22T01:29:11;23.10;69.70
4107;DHT22;21906;50.812;7.132;2023-06-22T01:31:39;23.10;69.80
4107;DHT22;21906;50.812;7.132;2023-06-22T01:34:07;23.10;68.70
4107;DHT22;21906;50.812;7.132;2023-06-22T01:36:34;23.00;69.40
4107;DHT22;21906;50.812;7.132;2023-06-22T01:39:02;23.10;70.40
4107;DHT22;21906;50.812;7.132;2023-06-22T01:41:30;23.10;69.90
4107;DHT22;21906;50.812;7.132;2023-06-22T01:43:56;23.00;68.90
4107;DHT22;21906;50.812;7.132;2023-06-22T01:46:23;23.00;69.20
4107;DHT22;21906;50.812;7.132;2023-06-22T01:48:49;23.00;68.90
4107;DHT22;21906;50.812;7.132;2023-06-22T01:51:16;23.00;69.10
4107;DHT22;21906;50.812;7.132;2023-06-22T01:53:41;23.00;68.90
4107;DHT22;21906;50.812;7.132;2023-06-22T01:56:08;23.10;68.90
4107;DHT22;21906;50.812;7.132;2023-06-22T01:58:34;23.10;69.50
4107;DHT22;21906;50.812;7.132;2023-06-22T02:01:10;23.00;70.00
4107;DHT22;21906;50.812;7.132;2023-06-22T02:03:41;23.00;70.10
4107;DHT22;21906;50.812;7.132;2023-06-22T02:06:10;22.90;68.70
4107;DHT22;21906;50.812;7.132;2023-06-22T02:08:41;22.90;69.90
4107;DHT22;21906;50.812;7.132;2023-06-22T02:11:09;22.90;70.30
4107;DHT22;21906;50.812;7.132;2023-06-22T02:13:36;22.90;69.90
4107;DHT22;21906;50.812;7.132;2023-06-22T02:16:02;22.90;69.90
4107;DHT22;21906;50.812;7.132;2023-06-22T02:18:28;22.90;70.00
4107;DHT22;21906;50.812;7.132;2023-06-22T02:20:54;22.90;69.90
4107;DHT22;21906;50.812;7.132;2023-06-22T02:23:20;22.90;70.20
4107;DHT22;21906;50.812;7.132;2023-06-22T02:25:45;22.90;69.80
4107;DHT22;21906;50.812;7.132;2023-06-22T02:28:11;22.90;70.00
4107;DHT22;21906;50.812;7.132;2023-06-22T02:30:37;22.90;70.30
4107;DHT22;21906;50.812;7.132;2023-06-22T02:33:02;22.90;70.50
4107;DHT22;21906;50.812;7.132;2023-06-22T02:35:28;22.90;70.60
4107;DHT22;21906;50.812;7.132;2023-06-22T02:38:00;22.90;70.90
4107;DHT22;21906;50.812;7.132;2023-06-22T02:40:26;22.90;71.50
4107;DHT22;21906;50.812;7.132;2023-06-22T02:42:52;22.80;70.90
4107;DHT22;21906;50.812;7.132;2023-06-22T02:45:18;22.70;70.20
4107;DHT22;21906;50.812;7.132;2023-06-22T02:47:44;22.70;70.20
4107;DHT22;21906;50.812;7.132;2023-06-22T02:50:11;22.70;70.20
4107;DHT22;21906;50.812;7.132;2023-06-22T02:52:37;22.70;70.30
4107;DHT22;21906;50.812;7.132;2023-06-22T02:55:05;22.70;70.50
4107;DHT22;21906;50.812;7.132;2023-06-22T02:57:32;22.70;70.40
4107;DHT22;21906;50.812;7.132;2023-06-22T02:59:58;22.60;70.60
4107;DHT22;21906;50.812;7.132;2023-06-22T03:02:24;22.60;71.10
4107;DHT22;21906;50.812;7.132;2023-06-22T03:04:51;22.60;70.50
4107;DHT22;21906;50.812;7.132;2023-06-22T03:07:19;22.70;70.00
4107;DHT22;21906;50.812;7.132;2023-06-22T03:09:45;22.70;70.70
4107;DHT22;21906;50.812;7.132;2023-06-22T03:12:10;22.70;70.40
4107;DHT22;21906;50.812;7.132;2023-06-22T03:14:36;22.70;70.80
4107;DHT22;21906;50.812;7.132;2023-06-22T03:17:02;22.60;71.30
4107;DHT22;21906;50.812;7.132;2023-06-22T03:19:29;22.70;71.50
4107;DHT22;21906;50.812;7.132;2023-06-22T03:21:59;22.60;72.00
4107;DHT22;21906;50.812;7.132;2023-06-22T03:24:25;22.60;72.30
4107;DHT22;21906;50.812;7.132;2023-06-22T03:26:54;22.70;72.30
4107;DHT22;21906;50.812;7.132;2023-06-22T03:29:20;22.70;72.60
4107;DHT22;21906;50.812;7.132;2023-06-22T03:31:45;22.70;72.10
4107;DHT22;21906;50.812;7.132;2023-06-22T03:34:11;22.70;71.50
4107;DHT22;21906;50.812;7.132;2023-06-22T03:36:37;22.70;71.40
4107;DHT22;21906;50.812;7.132;2023-06-22T03:39:02;22.80;71.20
4107;DHT22;21906;50.812;7.132;2023-06-22T03:41:28;22.80;71.00
4107;DHT22;21906;50.812;7.132;2023-06-22T03:43:54;22.80;71.10
4107;DHT22;21906;50.812;7.132;2023-06-22T03:46:19;22.80;71.10
4107;DHT22;21906;50.812;7.132;2023-06-22T03:48:45;22.80;71.20
4107;DHT22;21906;50.812;7.132;2023-06-22T03:51:11;22.70;71.50
4107;DHT22;21906;50.812;7.132;2023-06-22T03:53:36;22.70;71.80
4107;DHT22;21906;50.812;7.132;2023-06-22T03:56:02;22.70;71.90
4107;DHT22;21906;50.812;7.132;2023-06-22T03:58:28;22.70;72.30
4107;DHT22;21906;50.812;7.132;2023-06-22T04:00:58;22.60;72.10
4107;DHT22;21906;50.812;7.132;2023-06-22T04:03:25;22.60;71.90
4107;DHT22;21906;50.812;7.132;2023-06-22T04:05:50;22.70;71.90
4107;DHT22;21906;50.812;7.132;2023-06-22T04:08:16;22.70;72.10
4107;DHT22;21906;50.812;7.132;2023-06-22T04:10:42;22.80;72.00
4107;DHT22;21906;50.812;7.132;2023-06-22T04:13:07;22.80;71.80
4107;DHT22;21906;50.812;7.132;2023-06-22T04:15:33;22.80;71.80
4107;DHT22;21906;50.812;7.132;2023-06-22T04:17:59;22.80;71.70
4107;DHT22;21906;50.812;7.132;2023-06-22T04:20:24;22.80;71.70
4107;DHT22;21906;50.812;7.132;2023-06-22T04:22:56;22.70;71.80
4107;DHT22;21906;50.812;7.132;2023-06-22T04:25:22;22.70;71.80
4107;DHT22;21906;50.812;7.132;2023-06-22T04:27:48;22.70;72.20
4107;DHT22;21906;50.812;7.132;2023-06-22T04:30:14;22.70;72.40
4107;DHT22;21906;50.812;7.132;2023-06-22T04:32:43;22.60;72.70
4107;DHT22;21906;50.812;7.132;2023-06-22T04:35:10;22.60;72.70
4107;DHT22;21906;50.812;7.132;2023-06-22T04:37:35;22.60;72.80
4107;DHT22;21906;50.812;7.132;2023-06-22T04:40:01;22.50;73.00
4107;DHT22;21906;50.812;7.132;2023-06-22T04:42:29;22.50;73.10
4107;DHT22;21906;50.812;7.132;2023-06-22T04:44:55;22.60;72.70
4107;DHT22;21906;50.812;7.132;2023-06-22T04:47:21;22.60;72.50
4107;DHT22;21906;50.812;7.132;2023-06-22T04:49:47;22.60;72.40
4107;DHT22;21906;50.812;7.132;2023-06-22T04:52:13;22.70;72.00
4107;DHT22;21906;50.812;7.132;2023-06-22T04:54:40;22.60;71.90
4107;DHT22;21906;50.812;7.132;2023-06-22T04:57:13;22.70;72.00
4107;DHT22;21906;50.812;7.132;2023-06-22T04:59:38;22.80;72.10
4107;DHT22;21906;50.812;7.132;2023-06-22T05:02:07;22.80;72.10
4107;DHT22;21906;50.812;7.132;2023-06-22T05:04:33;22.80;72.20
4107;DHT22;21906;50.812;7.132;2023-06-22T05:07:01;22.90;72.10
4107;DHT22;21906;50.812;7.132;2023-06-22T05:09:27;22.90;72.20
4107;DHT22;21906;50.812;7.132;2023-06-22T05:11:53;22.90;72.70
4107;DHT22;21906;50.812;7.132;2023-06-22T05:14:19;22.90;72.60
4107;DHT22;21906;50.812;7.132;2023-06-22T05:16:46;22.80;72.50
4107;DHT22;21906;50.812;7.132;2023-06-22T05:19:12;22.80;72.80
4107;DHT22;21906;50.812;7.132;2023-06-22T05:21:38;22.80;73.20
4107;DHT22;21906;50.812;7.132;2023-06-22T05:24:04;22.90;72.90
4107;DHT22;21906;50.812;7.132;2023-06-22T05:26:31;22.90;72.80
4107;DHT22;21906;50.812;7.132;2023-06-22T05:28:58;23.00;72.50
4107;DHT22;21906;50.812;7.132;2023-06-22T05:31:24;23.10;72.30
4107;DHT22;21906;50.812;7.132;2023-06-22T05:33:52;23.20;72.30
4107;DHT22;21906;50.812;7.132;2023-06-22T05:36:18;23.30;72.20
4107;DHT22;21906;50.812;7.132;2023-06-22T05:38:50;23.40;71.90
4107;DHT22;21906;50.812;7.132;2023-06-22T05:41:16;23.40;71.80
4107;DHT22;21906;50.812;7.132;2023-06-22T05:43:42;23.60;71.50
4107;DHT22;21906;50.812;7.132;2023-06-22T05:46:07;23.70;71.40
4107;DHT22;21906;50.812;7.132;2023-06-22T05:48:33;23.70;71.50
4107;DHT22;21906;50.812;7.132;2023-06-22T05:50:59;23.90;71.30
4107;DHT22;21906;50.812;7.132;2023-06-22T05:53:24;23.90;71.40
4107;DHT22;21906;50.812;7.132;2023-06-22T05:55:50;23.90;71.40
4107;DHT22;21906;50.812;7.132;2023-06-22T05:58:16;23.90;71.10
4107;DHT22;21906;50.812;7.132;2023-06-22T06:00:42;23.90;71.50
4107;DHT22;21906;50.812;7.132;2023-06-22T06:03:09;23.90;71.40
4107;DHT22;21906;50.812;7.132;2023-06-22T06:05:35;23.90;71.30
4107;DHT22;21906;50.812;7.132;2023-06-22T06:08:01;24.00;71.00
4107;DHT22;21906;50.812;7.132;2023-06-22T06:10:28;23.90;71.10
4107;DHT22;21906;50.812;7.132;2023-06-22T06:12:55;24.00;71.00
4107;DHT22;21906;50.812;7.132;2023-06-22T06:15:21;24.10;71.00
4107;DHT22;21906;50.812;7.132;2023-06-22T06:20:13;23.90;72.00
4107;DHT22;21906;50.812;7.132;2023-06-22T06:22:39;24.00;72.00
4107;DHT22;21906;50.812;7.132;2023-06-22T06:25:05;24.10;71.20
4107;DHT22;21906;50.812;7.132;2023-06-22T06:27:31;24.20;70.90
4107;DHT22;21906;50.812;7.132;2023-06-22T06:29:57;24.30;70.50
4107;DHT22;21906;50.812;7.132;2023-06-22T06:32:22;24.40;70.10
4107;DHT22;21906;50.812;7.132;2023-06-22T06:34:48;24.40;70.20
4107;DHT22;21906;50.812;7.132;2023-06-22T06:37:14;24.40;70.10
4107;DHT22;21906;50.812;7.132;2023-06-22T06:39:40;24.40;69.90
4107;DHT22;21906;50.812;7.132;2023-06-22T06:42:06;24.20;70.00
4107;DHT22;21906;50.812;7.132;2023-06-22T06:44:32;24.10;70.60
4107;DHT22;21906;50.812;7.132;2023-06-22T06:46:58;24.20;70.80
4107;DHT22;21906;50.812;7.132;2023-06-22T06:49:23;24.10;71.30
4107;DHT22;21906;50.812;7.132;2023-06-22T06:51:50;24.10;71.00
4107;DHT22;21906;50.812;7.132;2023-06-22T06:54:15;23.90;72.00
4107;DHT22;21906;50.812;7.132;2023-06-22T06:56:41;23.90;71.60
4107;DHT22;21906;50.812;7.132;2023-06-22T06:59:10;24.10;71.60
4107;DHT22;21906;50.812;7.132;2023-06-22T07:01:35;24.30;71.20
4107;DHT22;21906;50.812;7.132;2023-06-22T07:04:01;24.20;70.30
4107;DHT22;21906;50.812;7.132;2023-06-22T07:06:27;24.30;70.20
4107;DHT22;21906;50.812;7.132;2023-06-22T07:08:55;24.20;70.10
4107;DHT22;21906;50.812;7.132;2023-06-22T07:11:21;24.10;70.80
4107;DHT22;21906;50.812;7.132;2023-06-22T07:13:46;24.10;70.50
4107;DHT22;21906;50.812;7.132;2023-06-22T07:16:12;24.10;70.10
4107;DHT22;21906;50.812;7.132;2023-06-22T07:18:39;24.10;70.70
4107;DHT22;21906;50.812;7.132;2023-06-22T07:21:05;24.10;70.80
4107;DHT22;21906;50.812;7.132;2023-06-22T07:23:32;24.20;70.70
4107;DHT22;21906;50.812;7.132;2023-06-22T07:25:58;24.40;70.70
4107;DHT22;21906;50.812;7.132;2023-06-22T07:28:27;24.50;70.10
4107;DHT22;21906;50.812;7.132;2023-06-22T07:30:56;24.70;69.10
4107;DHT22;21906;50.812;7.132;2023-06-22T07:33:22;24.80;69.50
4107;DHT22;21906;50.812;7.132;2023-06-22T07:35:48;24.90;68.50
4107;DHT22;21906;50.812;7.132;2023-06-22T07:38:16;25.00;68.60
4107;DHT22;21906;50.812;7.132;2023-06-22T07:40:42;24.90;68.90
4107;DHT22;21906;50.812;7.132;2023-06-22T07:43:07;25.00;68.70
4107;DHT22;21906;50.812;7.132;2023-06-22T07:45:33;25.10;69.30
4107;DHT22;21906;50.812;7.132;2023-06-22T07:48:01;25.10;69.20
4107;DHT22;21906;50.812;7.132;2023-06-22T07:50:26;25.20;69.20
4107;DHT22;21906;50.812;7.132;2023-06-22T07:52:53;25.40;68.50
4107;DHT22;21906;50.812;7.132;2023-06-22T07:55:20;25.40;68.00
4107;DHT22;21906;50.812;7.132;2023-06-22T07:57:48;25.20;68.90
4107;DHT22;21906;50.812;7.132;2023-06-22T08:00:14;25.30;69.00
4107;DHT22;21906;50.812;7.132;2023-06-22T08:02:42;25.30;68.80
4107;DHT22;21906;50.812;7.132;2023-06-22T08:05:09;25.40;68.00
4107;DHT22;21906;50.812;7.132;2023-06-22T08:07:35;25.60;68.50
4107;DHT22;21906;50.812;7.132;2023-06-22T08:10:03;25.70;67.90
4107;DHT22;21906;50.812;7.132;2023-06-22T08:12:29;25.70;68.20
4107;DHT22;21906;50.812;7.132;2023-06-22T08:14:55;25.80;66.80
4107;DHT22;21906;50.812;7.132;2023-06-22T08:17:22;25.80;67.30
4107;DHT22;21906;50.812;7.132;2023-06-22T08:19:48;25.60;67.90
4107;DHT22;21906;50.812;7.132;2023-06-22T08:22:15;25.50;68.60
4107;DHT22;21906;50.812;7.132;2023-06-22T08:24:41;25.50;67.90
4107;DHT22;21906;50.812;7.132;2023-06-22T08:27:10;25.50;67.80
4107;DHT22;21906;50.812;7.132;2023-06-22T08:29:37;25.60;67.40
4107;DHT22;21906;50.812;7.132;2023-06-22T08:32:03;25.70;67.90
4107;DHT22;21906;50.812;7.132;2023-06-22T08:34:29;25.80;66.90
4107;DHT22;21906;50.812;7.132;2023-06-22T08:36:55;25.80;67.40
4107;DHT22;21906;50.812;7.132;2023-06-22T08:39:22;25.90;68.00
4107;DHT22;21906;50.812;7.132;2023-06-22T08:41:48;26.00;66.70
4107;DHT22;21906;50.812;7.132;2023-06-22T08:44:15;26.10;66.70
4107;DHT22;21906;50.812;7.132;2023-06-22T08:46:41;26.20;67.50
4107;DHT22;21906;50.812;7.132;2023-06-22T08:49:07;26.30;66.60
4107;DHT22;21906;50.812;7.132;2023-06-22T08:51:33;26.30;65.30
4107;DHT22;21906;50.812;7.132;2023-06-22T08:53:59;26.40;66.60
4107;DHT22;21906;50.812;7.132;2023-06-22T08:56:25;26.40;66.70
4107;DHT22;21906;50.812;7.132;2023-06-22T08:58:51;26.50;67.10
4107;DHT22;21906;50.812;7.132;2023-06-22T09:01:16;26.50;66.40
4107;DHT22;21906;50.812;7.132;2023-06-22T09:03:42;26.40;67.40
4107;DHT22;21906;50.812;7.132;2023-06-22T09:06:08;26.50;65.90
4107;DHT22;21906;50.812;7.132;2023-06-22T09:08:37;26.40;67.20
4107;DHT22;21906;50.812;7.132;2023-06-22T09:11:03;26.70;65.90
4107;DHT22;21906;50.812;7.132;2023-06-22T09:13:30;26.70;65.50
4107;DHT22;21906;50.812;7.132;2023-06-22T09:15:56;26.80;66.90
4107;DHT22;21906;50.812;7.132;2023-06-22T09:18:22;26.80;65.90
4107;DHT22;21906;50.812;7.132;2023-06-22T09:20:48;26.90;65.50
4107;DHT22;21906;50.812;7.132;2023-06-22T09:23:14;27.10;65.10
4107;DHT22;21906;50.812;7.132;2023-06-22T09:25:40;27.20;65.10
4107;DHT22;21906;50.812;7.132;2023-06-22T09:28:06;27.20;64.20
4107;DHT22;21906;50.812;7.132;2023-06-22T09:30:32;27.30;63.60
4107;DHT22;21906;50.812;7.132;2023-06-22T09:32:58;27.40;64.50
4107;DHT22;21906;50.812;7.132;2023-06-22T09:35:23;27.50;64.00
4107;DHT22;21906;50.812;7.132;2023-06-22T09:37:49;27.60;63.60
4107;DHT22;21906;50.812;7.132;2023-06-22T09:40:15;27.70;62.50
4107;DHT22;21906;50.812;7.132;2023-06-22T09:42:42;27.80;61.80
4107;DHT22;21906;50.812;7.132;2023-06-22T09:45:08;27.90;62.50
4107;DHT22;21906;50.812;7.132;2023-06-22T09:47:34;27.90;59.90
4107;DHT22;21906;50.812;7.132;2023-06-22T09:50:00;27.90;61.40
4107;DHT22;21906;50.812;7.132;2023-06-22T09:52:26;27.90;60.80
4107;DHT22;21906;50.812;7.132;2023-06-22T09:54:52;28.00;59.50
4107;DHT22;21906;50.812;7.132;2023-06-22T09:57:17;28.10;58.90
4107;DHT22;21906;50.812;7.132;2023-06-22T09:59:43;27.90;59.40
4107;DHT22;21906;50.812;7.132;2023-06-22T10:02:09;27.80;59.70
4107;DHT22;21906;50.812;7.132;2023-06-22T10:04:35;27.70;60.20
4107;DHT22;21906;50.812;7.132;2023-06-22T10:07:02;27.60;60.30
4107;DHT22;21906;50.812;7.132;2023-06-22T10:09:28;27.40;61.20
4107;DHT22;21906;50.812;7.132;2023-06-22T10:11:53;27.20;61.80
4107;DHT22;21906;50.812;7.132;2023-06-22T10:14:19;27.20;62.40
4107;DHT22;21906;50.812;7.132;2023-06-22T10:16:45;27.00;63.40
4107;DHT22;21906;50.812;7.132;2023-06-22T10:19:11;27.00;63.20
4107;DHT22;21906;50.812;7.132;2023-06-22T10:21:36;26.90;63.50
4107;DHT22;21906;50.812;7.132;2023-06-22T10:24:02;26.80;64.60
4107;DHT22;21906;50.812;7.132;2023-06-22T10:26:35;26.70;66.30
4107;DHT22;21906;50.812;7.132;2023-06-22T10:29:02;26.60;68.60
4107;DHT22;21906;50.812;7.132;2023-06-22T10:31:28;26.40;70.20
4107;DHT22;21906;50.812;7.132;2023-06-22T10:33:54;26.30;70.50
4107;DHT22;21906;50.812;7.132;2023-06-22T10:36:22;26.20;71.50
4107;DHT22;21906;50.812;7.132;2023-06-22T10:38:48;26.00;71.80
4107;DHT22;21906;50.812;7.132;2023-06-22T10:41:14;26.00;72.10
4107;DHT22;21906;50.812;7.132;2023-06-22T10:43:40;25.90;73.50
4107;DHT22;21906;50.812;7.132;2023-06-22T10:46:06;25.70;74.10
4107;DHT22;21906;50.812;7.132;2023-06-22T10:48:32;25.60;75.20
4107;DHT22;21906;50.812;7.132;2023-06-22T10:50:58;25.60;76.00
4107;DHT22;21906;50.812;7.132;2023-06-22T10:53:24;25.50;76.80
4107;DHT22;21906;50.812;7.132;2023-06-22T10:55:50;25.40;76.60
4107;DHT22;21906;50.812;7.132;2023-06-22T10:58:18;25.30;77.60
4107;DHT22;21906;50.812;7.132;2023-06-22T11:00:45;25.20;78.50
4107;DHT22;21906;50.812;7.132;2023-06-22T11:03:10;25.20;78.80
4107;DHT22;21906;50.812;7.132;2023-06-22T11:05:36;25.10;79.40
4107;DHT22;21906;50.812;7.132;2023-06-22T11:08:02;25.00;80.00
4107;DHT22;21906;50.812;7.132;2023-06-22T11:10:28;25.00;80.20
4107;DHT22;21906;50.812;7.132;2023-06-22T11:12:53;24.90;80.20
4107;DHT22;21906;50.812;7.132;2023-06-22T11:15:21;24.90;79.00
4107;DHT22;21906;50.812;7.132;2023-06-22T11:17:46;24.80;78.90
4107;DHT22;21906;50.812;7.132;2023-06-22T11:20:12;24.50;79.80
4107;DHT22;21906;50.812;7.132;2023-06-22T11:22:39;24.40;81.10
4107;DHT22;21906;50.812;7.132;2023-06-22T11:25:06;24.40;80.90
4107;DHT22;21906;50.812;7.132;2023-06-22T11:27:32;24.50;81.20
4107;DHT22;21906;50.812;7.132;2023-06-22T11:29:58;24.40;80.50
4107;DHT22;21906;50.812;7.132;2023-06-22T11:32:24;24.30;81.50
4107;DHT22;21906;50.812;7.132;2023-06-22T11:34:50;24.00;82.90
4107;DHT22;21906;50.812;7.132;2023-06-22T11:37:16;24.00;83.60
4107;DHT22;21906;50.812;7.132;2023-06-22T11:39:42;24.00;84.00
4107;DHT22;21906;50.812;7.132;2023-06-22T11:42:09;24.10;84.10
4107;DHT22;21906;50.812;7.132;2023-06-22T11:44:35;24.20;83.70
4107;DHT22;21906;50.812;7.132;2023-06-22T11:47:01;24.20;84.50
4107;DHT22;21906;50.812;7.132;2023-06-22T11:49:32;24.50;84.50
4107;DHT22;21906;50.812;7.132;2023-06-22T11:51:58;24.80;85.00
4107;DHT22;21906;50.812;7.132;2023-06-22T11:54:27;25.30;84.10
4107;DHT22;21906;50.812;7.132;2023-06-22T11:56:53;25.60;81.60
4107;DHT22;21906;50.812;7.132;2023-06-22T11:59:18;25.90;83.50
4107;DHT22;21906;50.812;7.132;2023-06-22T12:01:44;25.90;79.90
4107;DHT22;21906;50.812;7.132;2023-06-22T12:04:10;25.70;79.50
4107;DHT22;21906;50.812;7.132;2023-06-22T12:06:38;25.50;79.20
4107;DHT22;21906;50.812;7.132;2023-06-22T12:09:06;25.40;79.70
4107;DHT22;21906;50.812;7.132;2023-06-22T12:11:32;25.40;80.70
4107;DHT22;21906;50.812;7.132;2023-06-22T12:13:58;25.40;80.20
4107;DHT22;21906;50.812;7.132;2023-06-22T12:16:28;25.50;79.00
4107;DHT22;21906;50.812;7.132;2023-06-22T12:18:53;25.60;78.80
4107;DHT22;21906;50.812;7.132;2023-06-22T12:21:19;25.70;77.80
4107;DHT22;21906;50.812;7.132;2023-06-22T12:23:45;25.50;76.60
4107;DHT22;21906;50.812;7.132;2023-06-22T12:26:11;25.30;78.10
4107;DHT22;21906;50.812;7.132;2023-06-22T12:28:36;25.30;77.70
4107;DHT22;21906;50.812;7.132;2023-06-22T12:31:02;25.30;77.30
4107;DHT22;21906;50.812;7.132;2023-06-22T12:33:28;25.20;77.90
4107;DHT22;21906;50.812;7.132;2023-06-22T12:35:56;25.30;78.30
4107;DHT22;21906;50.812;7.132;2023-06-22T12:38:22;25.40;77.10
4107;DHT22;21906;50.812;7.132;2023-06-22T12:40:47;25.50;79.70
4107;DHT22;21906;50.812;7.132;2023-06-22T12:43:15;25.80;78.70
4107;DHT22;21906;50.812;7.132;2023-06-22T12:45:42;26.00;77.10
4107;DHT22;21906;50.812;7.132;2023-06-22T12:48:07;26.20;74.70
4107;DHT22;21906;50.812;7.132;2023-06-22T12:50:34;26.40;74.30
4107;DHT22;21906;50.812;7.132;2023-06-22T12:53:00;26.60;72.00
4107;DHT22;21906;50.812;7.132;2023-06-22T12:55:28;26.80;72.30
4107;DHT22;21906;50.812;7.132;2023-06-22T12:57:54;26.80;70.20
4107;DHT22;21906;50.812;7.132;2023-06-22T13:00:20;26.60;70.70
4107;DHT22;21906;50.812;7.132;2023-06-22T13:02:45;26.20;71.20
4107;DHT22;21906;50.812;7.132;2023-06-22T13:05:11;26.20;71.60
4107;DHT22;21906;50.812;7.132;2023-06-22T13:07:37;26.30;70.50
4107;DHT22;21906;50.812;7.132;2023-06-22T13:10:03;26.30;69.70
4107;DHT22;21906;50.812;7.132;2023-06-22T13:12:30;26.40;71.40
4107;DHT22;21906;50.812;7.132;2023-06-22T13:14:55;26.50;71.00
4107;DHT22;21906;50.812;7.132;2023-06-22T13:17:21;26.60;69.30
4107;DHT22;21906;50.812;7.132;2023-06-22T13:19:47;26.70;72.90
4107;DHT22;21906;50.812;7.132;2023-06-22T13:22:32;26.90;69.30
4107;DHT22;21906;50.812;7.132;2023-06-22T13:25:00;26.70;67.80
4107;DHT22;21906;50.812;7.132;2023-06-22T13:27:26;26.60;68.40
4107;DHT22;21906;50.812;7.132;2023-06-22T13:29:52;26.80;71.00
4107;DHT22;21906;50.812;7.132;2023-06-22T13:32:18;27.10;69.50
4107;DHT22;21906;50.812;7.132;2023-06-22T13:34:44;27.20;68.70
4107;DHT22;21906;50.812;7.132;2023-06-22T13:37:10;27.40;68.20
4107;DHT22;21906;50.812;7.132;2023-06-22T13:39:35;27.70;70.20
4107;DHT22;21906;50.812;7.132;2023-06-22T13:42:01;28.00;67.90
4107;DHT22;21906;50.812;7.132;2023-06-22T13:44:27;28.20;65.20
4107;DHT22;21906;50.812;7.132;2023-06-22T13:46:55;28.40;67.40
4107;DHT22;21906;50.812;7.132;2023-06-22T13:49:21;28.50;62.80
4107;DHT22;21906;50.812;7.132;2023-06-22T13:51:47;28.60;62.30
4107;DHT22;21906;50.812;7.132;2023-06-22T13:54:16;28.70;64.80
4107;DHT22;21906;50.812;7.132;2023-06-22T13:56:42;28.60;61.80
4107;DHT22;21906;50.812;7.132;2023-06-22T13:59:08;28.60;64.20
4107;DHT22;21906;50.812;7.132;2023-06-22T14:01:36;28.70;62.10
4107;DHT22;21906;50.812;7.132;2023-06-22T14:04:02;28.70;62.60
4107;DHT22;21906;50.812;7.132;2023-06-22T14:06:28;28.40;62.30
4107;DHT22;21906;50.812;7.132;2023-06-22T14:08:53;28.10;64.60
4107;DHT22;21906;50.812;7.132;2023-06-22T14:11:19;28.20;65.20
4107;DHT22;21906;50.812;7.132;2023-06-22T14:13:45;28.00;64.80
4107;DHT22;21906;50.812;7.132;2023-06-22T14:16:11;27.80;65.30
4107;DHT22;21906;50.812;7.132;2023-06-22T14:18:37;27.50;65.90
4107;DHT22;21906;50.812;7.132;2023-06-22T14:21:02;27.10;66.30
4107;DHT22;21906;50.812;7.132;2023-06-22T14:23:28;26.90;68.10
4107;DHT22;21906;50.812;7.132;2023-06-22T14:25:54;26.90;68.30
4107;DHT22;21906;50.812;7.132;2023-06-22T14:28:20;26.90;69.10
4107;DHT22;21906;50.812;7.132;2023-06-22T14:30:45;26.60;69.00
4107;DHT22;21906;50.812;7.132;2023-06-22T14:33:12;26.50;69.50
4107;DHT22;21906;50.812;7.132;2023-06-22T14:35:38;26.30;70.10
4107;DHT22;21906;50.812;7.132;2023-06-22T14:38:04;26.00;70.70
4107;DHT22;21906;50.812;7.132;2023-06-22T14:40:30;25.90;71.60
4107;DHT22;21906;50.812;7.132;2023-06-22T14:42:56;25.90;72.60
4107;DHT22;21906;50.812;7.132;2023-06-22T14:45:23;26.00;72.30
4107;DHT22;21906;50.812;7.132;2023-06-22T14:47:49;26.00;73.70
4107;DHT22;21906;50.812;7.132;2023-06-22T14:50:15;26.10;75.60
4107;DHT22;21906;50.812;7.132;2023-06-22T14:52:41;26.00;76.10
4107;DHT22;21906;50.812;7.132;2023-06-22T14:55:07;26.00;77.30
4107;DHT22;21906;50.812;7.132;2023-06-22T14:57:33;25.90;77.90
4107;DHT22;21906;50.812;7.132;2023-06-22T14:59:58;25.80;78.10
4107;DHT22;21906;50.812;7.132;2023-06-22T15:02:27;25.70;78.60
4107;DHT22;21906;50.812;7.132;2023-06-22T15:04:52;25.60;79.00
4107;DHT22;21906;50.812;7.132;2023-06-22T15:07:19;25.30;79.80
4107;DHT22;21906;50.812;7.132;2023-06-22T15:09:45;25.20;80.10
4107;DHT22;21906;50.812;7.132;2023-06-22T15:12:11;25.30;78.30
4107;DHT22;21906;50.812;7.132;2023-06-22T15:14:41;25.30;78.10
4107;DHT22;21906;50.812;7.132;2023-06-22T15:17:08;25.30;77.70
4107;DHT22;21906;50.812;7.132;2023-06-22T15:19:37;25.00;77.00
4107;DHT22;21906;50.812;7.132;2023-06-22T15:22:06;24.70;77.60
4107;DHT22;21906;50.812;7.132;2023-06-22T15:24:33;24.50;78.40
4107;DHT22;21906;50.812;7.132;2023-06-22T15:26:59;24.20;79.40
4107;DHT22;21906;50.812;7.132;2023-06-22T15:29:26;23.90;80.50
4107;DHT22;21906;50.812;7.132;2023-06-22T15:31:52;23.80;80.90
4107;DHT22;21906;50.812;7.132;2023-06-22T15:34:18;23.60;81.70
4107;DHT22;21906;50.812;7.132;2023-06-22T15:36:44;23.50;81.60
4107;DHT22;21906;50.812;7.132;2023-06-22T15:39:10;23.40;82.70
4107;DHT22;21906;50.812;7.132;2023-06-22T15:41:39;23.50;82.60
4107;DHT22;21906;50.812;7.132;2023-06-22T15:44:07;23.70;82.40
4107;DHT22;21906;50.812;7.132;2023-06-22T15:46:32;23.90;82.20
4107;DHT22;21906;50.812;7.132;2023-06-22T15:48:58;23.90;81.40